sensor_id;sensor_type;location;lat;lon;timestamp;pressure;altitude;pressure_sealevel;temperature;humidity
20444;BME280;10381;53.730;10.010;2022-09-01T00:00:56;102101.81;;;10.68;100.00
20444;BME280;10381;53.730;10.010;2022-09-01T00:04:57;102110.81;;;10.65;100.00
20444;BME280;10381;53.730;10.010;2022-09-01T00:09:00;102101.56;;;10.58;100.00
20444;BME280;10381;53.730;10.010;2022-09-01T00:13:01;102100.19;;;10.39;100.00
20444;BME280;10381;53.730;10.010;2022-09-01T00:17:04;102100.59;;;9.92;100.00
20444;BME280;10381;53.730;10.010;2022-09-01T00:21:05;102107.97;;;9.45;100.00
20444;BME280;10381;53.730;10.010;2022-09-01T00:25:06;102104.88;;;9.24;100.00
20444;BME280;10381;53.730;10.010;2022-09-01T00:29:07;102096.94;;;9.10;100.00
20444;BME280;10381;53.730;10.010;2022-09-01T00:33:07;102100.50;;;9.09;100.00
20444;BME280;10381;53.730;10.010;2022-09-01T00:37:08;102095.50;;;8.90;100.00
20444;BME280;10381;53.730;10.010;2022-09-01T00:41:08;102099.13;;;8.73;100.00
20444;BME280;10381;53.730;10.010;2022-09-01T00:45:10;102096.81;;;8.68;100.00
20444;BME280;10381;53.730;10.010;2022-09-01T00:49:13;102101.94;;;9.00;100.00
20444;BME280;10381;53.730;10.010;2022-09-01T00:53:15;102096.38;;;9.33;100.00
20444;BME280;10381;53.730;10.010;2022-09-01T00:57:15;102103.53;;;9.60;100.00
20444;BME280;10381;53.730;10.010;2022-09-01T01:01:16;102097.03;;;9.78;100.00
20444;BME280;10381;53.730;10.010;2022-09-01T01:05:16;102103.09;;;9.80;100.00
20444;BME280;10381;53.730;10.010;2022-09-01T01:09:19;102101.66;;;9.89;100.00
20444;BME280;10381;53.730;10.010;2022-09-01T01:13:21;102100.53;;;9.93;100.00
20444;BME280;10381;53.730;10.010;2022-09-01T01:17:23;102109.34;;;9.79;100.00
20444;BME280;10381;53.730;10.010;2022-09-01T01:21:31;102103.25;;;9.65;100.00
20444;BME280;10381;53.730;10.010;2022-09-01T01:25:55;102116.06;;;9.71;100.00
20444;BME280;10381;53.730;10.010;2022-09-01T01:29:56;102105.22;;;9.61;100.00
20444;BME280;10381;53.730;10.010;2022-09-01T01:33:57;102108.44;;;9.52;100.00
20444;BME280;10381;53.730;10.010;2022-09-01T01:37:59;102116.38;;;9.37;100.00
20444;BME280;10381;53.730;10.010;2022-09-01T01:42:01;102113.38;;;9.15;100.00
20444;BME280;10381;53.730;10.010;2022-09-01T01:46:04;102116.84;;;9.01;100.00
20444;BME280;10381;53.730;10.010;2022-09-01T01:50:05;102108.97;;;8.71;100.00
20444;BME280;10381;53.730;10.010;2022-09-01T01:54:08;102108.63;;;8.47;100.00
20444;BME280;10381;53.730;10.010;2022-09-01T01:58:09;102113.72;;;8.50;100.00
20444;BME280;10381;53.730;10.010;2022-09-01T02:02:11;102113.41;;;8.40;100.00
20444;BME280;10381;53.730;10.010;2022-09-01T02:06:11;102109.84;;;8.25;100.00
20444;BME280;10381;53.730;10.010;2022-09-01T02:10:12;102111.03;;;8.20;100.00
20444;BME280;10381;53.730;10.010;2022-09-01T02:14:13;102108.97;;;8.25;100.00
20444;BME280;10381;53.730;10.010;2022-09-01T02:18:16;102114.00;;;8.45;100.00
20444;BME280;10381;53.730;10.010;2022-09-01T02:22:17;102106.13;;;8.44;100.00
20444;BME280;10381;53.730;10.010;2022-09-01T02:26:20;102110.81;;;8.39;100.00
20444;BME280;10381;53.730;10.010;2022-09-01T02:30:22;102111.97;;;8.65;100.00
20444;BME280;10381;53.730;10.010;2022-09-01T02:34:26;102111.25;;;8.77;100.00
20444;BME280;10381;53.730;10.010;2022-09-01T02:38:28;102115.44;;;8.95;100.00
20444;BME280;10381;53.730;10.010;2022-09-01T02:42:28;102117.13;;;9.11;100.00
20444;BME280;10381;53.730;10.010;2022-09-01T02:46:29;102117.91;;;9.42;100.00
20444;BME280;10381;53.730;10.010;2022-09-01T02:50:29;102115.25;;;9.56;100.00
20444;BME280;10381;53.730;10.010;2022-09-01T02:54:32;102120.91;;;9.50;100.00
20444;BME280;10381;53.730;10.010;2022-09-01T02:58:32;102123.94;;;9.58;100.00
20444;BME280;10381;53.730;10.010;2022-09-01T03:02:33;102122.03;;;9.60;100.00
20444;BME280;10381;53.730;10.010;2022-09-01T03:06:36;102115.72;;;9.63;100.00
20444;BME280;10381;53.730;10.010;2022-09-01T03:10:38;102126.75;;;9.69;100.00
20444;BME280;10381;53.730;10.010;2022-09-01T03:14:40;102131.66;;;9.75;100.00
20444;BME280;10381;53.730;10.010;2022-09-01T03:18:41;102127.97;;;9.78;100.00
20444;BME280;10381;53.730;10.010;2022-09-01T03:22:41;102139.00;;;9.85;100.00
20444;BME280;10381;53.730;10.010;2022-09-01T03:26:44;102135.69;;;9.81;100.00
20444;BME280;10381;53.730;10.010;2022-09-01T03:30:51;102127.19;;;9.76;100.00
20444;BME280;10381;53.730;10.010;2022-09-01T03:34:51;102129.78;;;9.63;100.00
20444;BME280;10381;53.730;10.010;2022-09-01T03:38:52;102128.69;;;9.38;100.00
20444;BME280;10381;53.730;10.010;2022-09-01T03:42:53;102115.25;;;8.99;100.00
20444;BME280;10381;53.730;10.010;2022-09-01T03:46:54;102123.91;;;8.86;100.00
20444;BME280;10381;53.730;10.010;2022-09-01T03:50:57;102113.59;;;8.82;100.00
20444;BME280;10381;53.730;10.010;2022-09-01T03:55:01;102112.97;;;8.48;100.00
20444;BME280;10381;53.730;10.010;2022-09-01T03:59:02;102115.78;;;8.45;100.00
20444;BME280;10381;53.730;10.010;2022-09-01T04:03:04;102117.66;;;8.43;100.00
20444;BME280;10381;53.730;10.010;2022-09-01T04:07:06;102115.16;;;8.56;100.00
20444;BME280;10381;53.730;10.010;2022-09-01T04:11:15;102124.41;;;8.93;100.00
20444;BME280;10381;53.730;10.010;2022-09-01T04:15:17;102121.50;;;9.12;100.00
20444;BME280;10381;53.730;10.010;2022-09-01T04:19:22;102125.06;;;9.25;100.00
20444;BME280;10381;53.730;10.010;2022-09-01T04:23:31;102127.16;;;9.34;100.00
20444;BME280;10381;53.730;10.010;2022-09-01T04:27:33;102122.06;;;9.31;100.00
20444;BME280;10381;53.730;10.010;2022-09-01T04:31:36;102134.13;;;9.35;100.00
20444;BME280;10381;53.730;10.010;2022-09-01T04:35:38;102144.91;;;9.47;100.00
20444;BME280;10381;53.730;10.010;2022-09-01T04:39:40;102145.59;;;9.50;100.00
20444;BME280;10381;53.730;10.010;2022-09-01T04:43:48;102149.72;;;9.54;100.00
20444;BME280;10381;53.730;10.010;2022-09-01T04:47:50;102147.84;;;9.56;100.00
20444;BME280;10381;53.730;10.010;2022-09-01T04:51:52;102150.22;;;10.02;100.00
20444;BME280;10381;53.730;10.010;2022-09-01T04:55:52;102167.59;;;10.48;100.00
20444;BME280;10381;53.730;10.010;2022-09-01T04:59:54;102169.16;;;10.78;100.00
20444;BME280;10381;53.730;10.010;2022-09-01T05:03:55;102162.41;;;10.99;100.00
20444;BME280;10381;53.730;10.010;2022-09-01T05:07:58;102168.06;;;11.33;100.00
20444;BME280;10381;53.730;10.010;2022-09-01T05:11:58;102170.22;;;11.78;100.00
20444;BME280;10381;53.730;10.010;2022-09-01T05:16:11;102162.50;;;12.35;100.00
20444;BME280;10381;53.730;10.010;2022-09-01T05:20:14;102166.59;;;12.99;100.00
20444;BME280;10381;53.730;10.010;2022-09-01T05:24:18;102155.31;;;13.64;100.00
20444;BME280;10381;53.730;10.010;2022-09-01T05:28:20;102151.34;;;14.14;100.00
20444;BME280;10381;53.730;10.010;2022-09-01T05:32:23;102100.47;;;14.17;100.00
20444;BME280;10381;53.730;10.010;2022-09-01T05:36:25;102071.00;;;14.18;100.00
20444;BME280;10381;53.730;10.010;2022-09-01T05:40:25;102052.88;;;14.33;100.00
20444;BME280;10381;53.730;10.010;2022-09-01T05:44:26;102045.59;;;14.35;100.00
20444;BME280;10381;53.730;10.010;2022-09-01T05:48:27;102048.66;;;14.52;100.00
20444;BME280;10381;53.730;10.010;2022-09-01T05:52:35;102046.84;;;14.73;100.00
20444;BME280;10381;53.730;10.010;2022-09-01T05:56:37;102045.06;;;15.14;100.00
20444;BME280;10381;53.730;10.010;2022-09-01T06:00:43;102052.78;;;15.48;100.00
20444;BME280;10381;53.730;10.010;2022-09-01T06:04:48;102047.22;;;15.70;100.00
20444;BME280;10381;53.730;10.010;2022-09-01T06:08:49;102050.78;;;16.00;100.00
20444;BME280;10381;53.730;10.010;2022-09-01T06:12:50;102047.94;;;16.02;100.00
20444;BME280;10381;53.730;10.010;2022-09-01T06:16:52;102046.13;;;15.83;100.00
20444;BME280;10381;53.730;10.010;2022-09-01T06:20:53;102050.19;;;15.37;100.00
20444;BME280;10381;53.730;10.010;2022-09-01T06:24:54;102051.94;;;15.07;100.00
20444;BME280;10381;53.730;10.010;2022-09-01T06:29:02;102047.19;;;14.80;100.00
20444;BME280;10381;53.730;10.010;2022-09-01T06:33:04;102052.47;;;14.70;100.00
20444;BME280;10381;53.730;10.010;2022-09-01T06:37:09;102055.69;;;14.74;100.00
20444;BME280;10381;53.730;10.010;2022-09-01T06:41:10;102056.75;;;14.82;100.00
20444;BME280;10381;53.730;10.010;2022-09-01T06:45:16;102058.44;;;15.14;100.00
20444;BME280;10381;53.730;10.010;2022-09-01T06:49:19;102060.00;;;15.26;100.00
20444;BME280;10381;53.730;10.010;2022-09-01T06:53:20;102064.69;;;15.44;100.00
20444;BME280;10381;53.730;10.010;2022-09-01T06:57:20;102063.19;;;15.61;100.00
20444;BME280;10381;53.730;10.010;2022-09-01T07:01:21;102063.81;;;15.74;100.00
20444;BME280;10381;53.730;10.010;2022-09-01T07:05:23;102067.09;;;15.97;100.00
20444;BME280;10381;53.730;10.010;2022-09-01T07:09:24;102064.28;;;16.08;100.00
20444;BME280;10381;53.730;10.010;2022-09-01T07:13:25;102059.34;;;16.33;100.00
20444;BME280;10381;53.730;10.010;2022-09-01T07:17:26;102056.53;;;16.34;100.00
20444;BME280;10381;53.730;10.010;2022-09-01T07:21:29;102058.91;;;16.47;100.00
20444;BME280;10381;53.730;10.010;2022-09-01T07:25:36;102062.09;;;16.80;100.00
20444;BME280;10381;53.730;10.010;2022-09-01T07:29:37;102069.72;;;17.12;100.00
20444;BME280;10381;53.730;10.010;2022-09-01T07:33:38;102068.56;;;17.24;100.00
20444;BME280;10381;53.730;10.010;2022-09-01T07:37:38;102070.59;;;17.68;100.00
20444;BME280;10381;53.730;10.010;2022-09-01T07:41:39;102067.09;;;17.85;100.00
20444;BME280;10381;53.730;10.010;2022-09-01T07:45:44;102067.19;;;17.94;100.00
20444;BME280;10381;53.730;10.010;2022-09-01T07:49:48;102068.03;;;18.12;100.00
20444;BME280;10381;53.730;10.010;2022-09-01T07:53:48;102069.50;;;18.06;100.00
20444;BME280;10381;53.730;10.010;2022-09-01T07:57:49;102076.38;;;18.27;100.00
20444;BME280;10381;53.730;10.010;2022-09-01T08:01:50;102077.28;;;18.36;100.00
20444;BME280;10381;53.730;10.010;2022-09-01T08:05:51;102082.34;;;18.39;100.00
20444;BME280;10381;53.730;10.010;2022-09-01T08:09:56;102078.63;;;18.58;100.00
20444;BME280;10381;53.730;10.010;2022-09-01T08:13:58;102080.88;;;18.70;100.00
20444;BME280;10381;53.730;10.010;2022-09-01T08:17:59;102080.41;;;18.93;100.00
20444;BME280;10381;53.730;10.010;2022-09-01T08:22:00;102081.94;;;18.96;100.00
20444;BME280;10381;53.730;10.010;2022-09-01T08:26:04;102087.19;;;19.05;100.00
20444;BME280;10381;53.730;10.010;2022-09-01T08:30:08;102080.59;;;19.00;100.00
20444;BME280;10381;53.730;10.010;2022-09-01T08:34:08;102078.09;;;19.06;100.00
20444;BME280;10381;53.730;10.010;2022-09-01T08:38:11;102085.97;;;19.00;100.00
20444;BME280;10381;53.730;10.010;2022-09-01T08:46:25;102079.19;;;19.22;100.00
20444;BME280;10381;53.730;10.010;2022-09-01T08:50:26;102084.88;;;19.19;100.00
20444;BME280;10381;53.730;10.010;2022-09-01T08:58:33;102087.56;;;19.19;100.00
20444;BME280;10381;53.730;10.010;2022-09-01T09:03:06;102084.97;;;19.35;100.00
20444;BME280;10381;53.730;10.010;2022-09-01T09:07:31;102083.28;;;19.76;100.00
20444;BME280;10381;53.730;10.010;2022-09-01T09:11:57;102081.66;;;19.57;100.00
20444;BME280;10381;53.730;10.010;2022-09-01T09:16:21;102078.69;;;19.61;100.00
20444;BME280;10381;53.730;10.010;2022-09-01T09:20:26;102068.50;;;19.72;100.00
20444;BME280;10381;53.730;10.010;2022-09-01T09:29:00;102062.47;;;19.02;100.00
20444;BME280;10381;53.730;10.010;2022-09-01T09:33:05;102061.19;;;19.56;100.00
20444;BME280;10381;53.730;10.010;2022-09-01T09:37:20;102071.25;;;20.13;100.00
20444;BME280;10381;53.730;10.010;2022-09-01T09:41:21;102066.00;;;20.61;100.00
20444;BME280;10381;53.730;10.010;2022-09-01T09:45:29;102071.34;;;20.94;100.00
20444;BME280;10381;53.730;10.010;2022-09-01T09:49:34;102070.66;;;21.00;100.00
20444;BME280;10381;53.730;10.010;2022-09-01T09:53:34;102061.13;;;21.20;100.00
20444;BME280;10381;53.730;10.010;2022-09-01T09:57:38;102055.75;;;20.64;100.00
20444;BME280;10381;53.730;10.010;2022-09-01T10:01:40;102053.72;;;20.75;100.00
20444;BME280;10381;53.730;10.010;2022-09-01T10:05:45;102052.38;;;21.26;100.00
20444;BME280;10381;53.730;10.010;2022-09-01T10:09:47;102045.91;;;21.44;100.00
20444;BME280;10381;53.730;10.010;2022-09-01T10:13:48;102042.88;;;21.39;97.32
20444;BME280;10381;53.730;10.010;2022-09-01T10:17:50;102034.19;;;20.81;95.81
20444;BME280;10381;53.730;10.010;2022-09-01T10:21:52;102033.72;;;20.36;95.09
20444;BME280;10381;53.730;10.010;2022-09-01T10:26:01;102031.66;;;20.47;96.25
20444;BME280;10381;53.730;10.010;2022-09-01T10:30:13;102038.34;;;20.92;90.45
20444;BME280;10381;53.730;10.010;2022-09-01T10:34:16;102024.03;;;20.91;93.65
20444;BME280;10381;53.730;10.010;2022-09-01T10:38:21;102030.66;;;20.72;91.58
20444;BME280;10381;53.730;10.010;2022-09-01T10:42:25;102028.75;;;20.89;91.02
20444;BME280;10381;53.730;10.010;2022-09-01T10:50:31;102040.28;;;21.14;82.47
20444;BME280;10381;53.730;10.010;2022-09-01T10:54:54;102034.66;;;20.84;82.11
20444;BME280;10381;53.730;10.010;2022-09-01T11:11:40;102020.84;;;19.48;98.13
20444;BME280;10381;53.730;10.010;2022-09-01T11:15:43;102020.47;;;19.43;100.00
20444;BME280;10381;53.730;10.010;2022-09-01T11:19:57;102018.66;;;19.44;100.00
20444;BME280;10381;53.730;10.010;2022-09-01T11:28:39;102017.84;;;19.51;100.00
20444;BME280;10381;53.730;10.010;2022-09-01T11:32:40;102009.69;;;19.77;100.00
20444;BME280;10381;53.730;10.010;2022-09-01T11:40:53;102020.53;;;21.84;93.99
20444;BME280;10381;53.730;10.010;2022-09-01T11:45:18;102020.81;;;22.36;88.30
20444;BME280;10381;53.730;10.010;2022-09-01T11:49:36;102016.91;;;23.27;82.36
20444;BME280;10381;53.730;10.010;2022-09-01T11:53:36;102014.44;;;23.32;75.67
20444;BME280;10381;53.730;10.010;2022-09-01T11:57:39;102010.88;;;22.81;74.11
20444;BME280;10381;53.730;10.010;2022-09-01T12:01:39;102002.41;;;21.93;81.90
20444;BME280;10381;53.730;10.010;2022-09-01T12:05:41;101989.19;;;21.21;87.65
20444;BME280;10381;53.730;10.010;2022-09-01T12:09:44;101988.91;;;20.68;90.06
20444;BME280;10381;53.730;10.010;2022-09-01T12:14:03;101983.13;;;20.88;93.20
20444;BME280;10381;53.730;10.010;2022-09-01T12:18:17;101985.94;;;21.02;93.44
20444;BME280;10381;53.730;10.010;2022-09-01T12:22:19;101990.88;;;20.91;96.90
20444;BME280;10381;53.730;10.010;2022-09-01T12:26:26;101990.53;;;20.94;96.21
20444;BME280;10381;53.730;10.010;2022-09-01T12:30:29;101984.91;;;21.03;95.09
20444;BME280;10381;53.730;10.010;2022-09-01T12:34:40;101982.28;;;20.95;94.39
20444;BME280;10381;53.730;10.010;2022-09-01T12:38:41;101970.75;;;20.70;93.32
20444;BME280;10381;53.730;10.010;2022-09-01T12:42:49;101973.44;;;20.70;88.44
20444;BME280;10381;53.730;10.010;2022-09-01T12:46:50;101973.47;;;20.46;92.97
20444;BME280;10381;53.730;10.010;2022-09-01T12:50:51;101963.00;;;20.67;96.27
20444;BME280;10381;53.730;10.010;2022-09-01T12:59:21;101960.84;;;21.02;90.52
20444;BME280;10381;53.730;10.010;2022-09-01T13:03:22;101965.38;;;21.41;90.60
20444;BME280;10381;53.730;10.010;2022-09-01T13:07:22;101965.31;;;22.10;87.55
20444;BME280;10381;53.730;10.010;2022-09-01T13:11:23;101962.63;;;21.49;87.11
20444;BME280;10381;53.730;10.010;2022-09-01T13:15:24;101972.88;;;21.22;87.34
20444;BME280;10381;53.730;10.010;2022-09-01T13:19:27;101966.38;;;21.09;87.95
20444;BME280;10381;53.730;10.010;2022-09-01T13:23:27;101964.41;;;21.02;89.85
20444;BME280;10381;53.730;10.010;2022-09-01T13:27:27;101965.53;;;21.08;89.47
20444;BME280;10381;53.730;10.010;2022-09-01T13:31:28;101960.81;;;20.71;91.33
20444;BME280;10381;53.730;10.010;2022-09-01T13:35:30;101954.28;;;20.65;92.20
20444;BME280;10381;53.730;10.010;2022-09-01T13:39:31;101944.03;;;20.52;95.07
20444;BME280;10381;53.730;10.010;2022-09-01T13:43:33;101940.88;;;20.24;94.72
20444;BME280;10381;53.730;10.010;2022-09-01T13:47:33;101935.47;;;20.40;91.62
20444;BME280;10381;53.730;10.010;2022-09-01T13:51:34;101935.59;;;20.63;89.78
20444;BME280;10381;53.730;10.010;2022-09-01T13:55:38;101939.78;;;21.28;85.50
20444;BME280;10381;53.730;10.010;2022-09-01T13:59:39;101937.03;;;21.68;81.95
20444;BME280;10381;53.730;10.010;2022-09-01T14:03:40;101939.41;;;22.53;83.04
20444;BME280;10381;53.730;10.010;2022-09-01T14:07:43;101943.13;;;22.82;78.75
20444;BME280;10381;53.730;10.010;2022-09-01T14:11:43;101933.84;;;22.40;79.53
20444;BME280;10381;53.730;10.010;2022-09-01T14:15:43;101935.97;;;21.54;80.30
20444;BME280;10381;53.730;10.010;2022-09-01T14:19:49;101924.09;;;21.09;82.17
20444;BME280;10381;53.730;10.010;2022-09-01T14:23:50;101928.47;;;20.79;84.00
20444;BME280;10381;53.730;10.010;2022-09-01T14:27:51;101915.50;;;21.37;82.27
20444;BME280;10381;53.730;10.010;2022-09-01T14:31:52;101914.91;;;21.73;79.71
20444;BME280;10381;53.730;10.010;2022-09-01T14:35:54;101906.53;;;21.67;77.94
20444;BME280;10381;53.730;10.010;2022-09-01T14:39:56;101907.25;;;21.38;78.93
20444;BME280;10381;53.730;10.010;2022-09-01T14:43:56;101906.53;;;21.67;79.26
20444;BME280;10381;53.730;10.010;2022-09-01T14:48:03;101900.97;;;20.92;82.56
20444;BME280;10381;53.730;10.010;2022-09-01T14:52:05;101902.28;;;20.56;85.26
20444;BME280;10381;53.730;10.010;2022-09-01T14:56:06;101885.00;;;21.13;87.04
20444;BME280;10381;53.730;10.010;2022-09-01T15:00:09;101892.41;;;21.42;85.61
20444;BME280;10381;53.730;10.010;2022-09-01T15:04:11;101889.28;;;20.68;87.49
20444;BME280;10381;53.730;10.010;2022-09-01T15:08:11;101883.88;;;21.08;89.09
20444;BME280;10381;53.730;10.010;2022-09-01T15:12:11;101880.03;;;21.25;86.31
20444;BME280;10381;53.730;10.010;2022-09-01T15:16:14;101880.56;;;21.20;83.88
20444;BME280;10381;53.730;10.010;2022-09-01T15:20:15;101868.91;;;21.51;85.20
20444;BME280;10381;53.730;10.010;2022-09-01T15:24:35;101874.41;;;21.35;83.75
20444;BME280;10381;53.730;10.010;2022-09-01T15:28:35;101864.94;;;21.39;86.87
20444;BME280;10381;53.730;10.010;2022-09-01T15:32:35;101856.88;;;21.39;88.01
20444;BME280;10381;53.730;10.010;2022-09-01T15:36:37;101867.16;;;21.35;88.16
20444;BME280;10381;53.730;10.010;2022-09-01T15:40:44;101852.91;;;21.49;88.51
20444;BME280;10381;53.730;10.010;2022-09-01T15:44:45;101852.91;;;20.72;91.53
20444;BME280;10381;53.730;10.010;2022-09-01T15:48:46;101852.56;;;20.75;94.70
20444;BME280;10381;53.730;10.010;2022-09-01T15:56:48;101867.28;;;22.99;82.75
20444;BME280;10381;53.730;10.010;2022-09-01T16:00:49;101868.34;;;24.25;78.48
20444;BME280;10381;53.730;10.010;2022-09-01T16:04:50;101871.81;;;24.19;75.67
20444;BME280;10381;53.730;10.010;2022-09-01T16:08:50;101869.56;;;24.22;77.19
20444;BME280;10381;53.730;10.010;2022-09-01T16:12:54;101858.72;;;23.59;76.45
20444;BME280;10381;53.730;10.010;2022-09-01T16:17:16;101859.19;;;23.70;75.07
20444;BME280;10381;53.730;10.010;2022-09-01T16:21:26;101857.16;;;23.50;75.08
20444;BME280;10381;53.730;10.010;2022-09-01T16:25:32;101859.53;;;23.60;74.98
20444;BME280;10381;53.730;10.010;2022-09-01T16:30:32;101855.00;;;22.81;76.51
20444;BME280;10381;53.730;10.010;2022-09-01T16:34:12;101852.78;;;21.81;80.17
20444;BME280;10381;53.730;10.010;2022-09-01T16:38:32;101841.09;;;19.70;90.96
20444;BME280;10381;53.730;10.010;2022-09-01T16:43:07;101842.78;;;19.05;100.00
20444;BME280;10381;53.730;10.010;2022-09-01T16:52:08;101833.72;;;18.64;100.00
20444;BME280;10381;53.730;10.010;2022-09-01T16:56:21;101832.19;;;18.53;100.00
20444;BME280;10381;53.730;10.010;2022-09-01T17:00:31;101847.41;;;18.44;100.00
20444;BME280;10381;53.730;10.010;2022-09-01T17:04:45;101837.81;;;18.34;100.00
20444;BME280;10381;53.730;10.010;2022-09-01T17:09:11;101836.59;;;18.20;100.00
20444;BME280;10381;53.730;10.010;2022-09-01T17:13:22;101847.41;;;18.02;100.00
20444;BME280;10381;53.730;10.010;2022-09-01T17:17:37;101842.97;;;17.93;100.00
20444;BME280;10381;53.730;10.010;2022-09-01T17:21:46;101843.38;;;17.80;100.00
20444;BME280;10381;53.730;10.010;2022-09-01T17:26:00;101843.41;;;17.62;100.00
20444;BME280;10381;53.730;10.010;2022-09-01T17:30:03;101837.63;;;17.49;100.00
20444;BME280;10381;53.730;10.010;2022-09-01T17:38:50;101846.56;;;17.21;100.00
20444;BME280;10381;53.730;10.010;2022-09-01T17:43:10;101857.13;;;17.05;100.00
20444;BME280;10381;53.730;10.010;2022-09-01T17:47:33;101857.81;;;16.89;100.00
20444;BME280;10381;53.730;10.010;2022-09-01T18:00:06;101861.56;;;16.41;100.00
20444;BME280;10381;53.730;10.010;2022-09-01T18:08:34;101864.38;;;16.02;100.00
20444;BME280;10381;53.730;10.010;2022-09-01T18:12:38;101861.28;;;15.87;100.00
20444;BME280;10381;53.730;10.010;2022-09-01T18:20:47;101861.91;;;15.52;100.00
20444;BME280;10381;53.730;10.010;2022-09-01T18:24:59;101860.63;;;15.27;100.00
20444;BME280;10381;53.730;10.010;2022-09-01T18:29:04;101868.19;;;15.12;100.00
20444;BME280;10381;53.730;10.010;2022-09-01T18:33:19;101867.47;;;15.00;100.00
20444;BME280;10381;53.730;10.010;2022-09-01T18:46:14;101865.13;;;14.57;100.00
20444;BME280;10381;53.730;10.010;2022-09-01T18:50:28;101862.38;;;14.37;100.00
20444;BME280;10381;53.730;10.010;2022-09-01T18:54:46;101869.75;;;14.24;100.00
20444;BME280;10381;53.730;10.010;2022-09-01T18:59:05;101871.25;;;14.17;100.00
20444;BME280;10381;53.730;10.010;2022-09-01T19:07:48;101884.53;;;14.07;100.00
20444;BME280;10381;53.730;10.010;2022-09-01T19:12:01;101880.22;;;13.95;100.00
20444;BME280;10381;53.730;10.010;2022-09-01T19:20:31;101880.31;;;13.62;100.00
20444;BME280;10381;53.730;10.010;2022-09-01T19:24:43;101881.41;;;13.60;100.00
20444;BME280;10381;53.730;10.010;2022-09-01T19:28:58;101877.94;;;13.48;100.00
20444;BME280;10381;53.730;10.010;2022-09-01T19:33:03;101880.28;;;13.41;100.00
20444;BME280;10381;53.730;10.010;2022-09-01T19:37:04;101874.88;;;13.32;100.00
20444;BME280;10381;53.730;10.010;2022-09-01T19:41:14;101879.13;;;13.23;100.00
20444;BME280;10381;53.730;10.010;2022-09-01T19:58:41;101875.09;;;12.85;100.00
20444;BME280;10381;53.730;10.010;2022-09-01T20:02:58;101870.25;;;12.79;100.00
20444;BME280;10381;53.730;10.010;2022-09-01T20:07:03;101869.06;;;12.72;100.00
20444;BME280;10381;53.730;10.010;2022-09-01T20:11:40;101874.88;;;12.54;100.00
20444;BME280;10381;53.730;10.010;2022-09-01T20:15:48;101881.41;;;12.50;100.00
20444;BME280;10381;53.730;10.010;2022-09-01T20:20:06;101880.56;;;12.50;100.00
20444;BME280;10381;53.730;10.010;2022-09-01T20:24:15;101872.00;;;12.46;100.00
20444;BME280;10381;53.730;10.010;2022-09-01T20:32:48;101874.53;;;12.25;100.00
20444;BME280;10381;53.730;10.010;2022-09-01T20:36:59;101876.56;;;12.22;100.00
20444;BME280;10381;53.730;10.010;2022-09-01T20:41:10;101870.16;;;12.13;100.00
20444;BME280;10381;53.730;10.010;2022-09-01T20:45:22;101880.31;;;12.08;100.00
20444;BME280;10381;53.730;10.010;2022-09-01T20:49:23;101883.91;;;12.07;100.00
20444;BME280;10381;53.730;10.010;2022-09-01T21:02:00;101873.44;;;11.70;100.00
20444;BME280;10381;53.730;10.010;2022-09-01T21:06:09;101878.69;;;11.59;100.00
20444;BME280;10381;53.730;10.010;2022-09-01T21:10:41;101888.56;;;11.57;100.00
20444;BME280;10381;53.730;10.010;2022-09-01T21:14:55;101878.09;;;11.55;100.00
20444;BME280;10381;53.730;10.010;2022-09-01T21:19:04;101884.47;;;11.52;100.00
20444;BME280;10381;53.730;10.010;2022-09-01T21:23:05;101880.59;;;11.45;100.00
20444;BME280;10381;53.730;10.010;2022-09-01T21:27:10;101883.00;;;11.48;100.00
20444;BME280;10381;53.730;10.010;2022-09-01T21:31:12;101884.47;;;11.52;100.00
20444;BME280;10381;53.730;10.010;2022-09-01T21:35:15;101886.56;;;11.60;100.00
20444;BME280;10381;53.730;10.010;2022-09-01T21:39:15;101878.69;;;11.59;100.00
20444;BME280;10381;53.730;10.010;2022-09-01T21:43:23;101881.34;;;11.59;100.00
20444;BME280;10381;53.730;10.010;2022-09-01T21:47:25;101878.50;;;11.62;100.00
20444;BME280;10381;53.730;10.010;2022-09-01T21:51:25;101877.28;;;11.66;100.00
20444;BME280;10381;53.730;10.010;2022-09-01T21:55:26;101881.84;;;11.64;100.00
20444;BME280;10381;53.730;10.010;2022-09-01T21:59:27;101879.19;;;11.64;100.00
20444;BME280;10381;53.730;10.010;2022-09-01T22:03:27;101878.69;;;11.59;100.00
20444;BME280;10381;53.730;10.010;2022-09-01T22:07:28;101883.41;;;11.55;100.00
20444;BME280;10381;53.730;10.010;2022-09-01T22:11:29;101876.72;;;11.49;100.00
20444;BME280;10381;53.730;10.010;2022-09-01T22:15:31;101883.44;;;11.42;100.00
20444;BME280;10381;53.730;10.010;2022-09-01T22:19:33;101883.28;;;11.33;100.00
20444;BME280;10381;53.730;10.010;2022-09-01T22:23:34;101880.28;;;11.26;100.00
20444;BME280;10381;53.730;10.010;2022-09-01T22:27:34;101883.34;;;11.20;100.00
20444;BME280;10381;53.730;10.010;2022-09-01T22:31:36;101880.09;;;11.16;100.00
20444;BME280;10381;53.730;10.010;2022-09-01T22:35:45;101885.34;;;11.05;100.00
20444;BME280;10381;53.730;10.010;2022-09-01T22:39:45;101892.00;;;10.74;100.00
20444;BME280;10381;53.730;10.010;2022-09-01T22:43:46;101889.31;;;10.37;100.00
20444;BME280;10381;53.730;10.010;2022-09-01T22:47:47;101897.66;;;10.56;100.00
20444;BME280;10381;53.730;10.010;2022-09-01T22:51:47;101897.06;;;10.77;100.00